createdAt,value
2022-10-22T00:01:56.628Z,3.33
2022-10-22T00:04:22.994Z,3.83
2022-10-22T00:06:49.363Z,3.47
2022-10-22T00:09:15.755Z,3.63
2022-10-22T00:11:43.067Z,3.38
2022-10-22T00:14:09.608Z,3.80
2022-10-22T00:16:35.914Z,3.20
2022-10-22T00:19:02.244Z,3.70
2022-10-22T00:21:30.634Z,3.92
2022-10-22T00:23:56.939Z,3.63
2022-10-22T00:26:23.436Z,3.73
2022-10-22T00:28:49.793Z,3.83
2022-10-22T00:31:16.137Z,3.78
2022-10-22T00:33:42.514Z,3.42
2022-10-22T00:36:09.057Z,3.67
2022-10-22T00:38:35.375Z,3.40
2022-10-22T00:43:33.107Z,3.70
2022-10-22T00:45:59.503Z,3.70
2022-10-22T00:48:29.855Z,4.00
2022-10-22T00:51:08.154Z,3.70
2022-10-22T00:53:38.759Z,3.72
2022-10-22T00:56:06.423Z,3.97
2022-10-22T00:58:36.727Z,3.85
2022-10-22T01:01:05.340Z,3.75
2022-10-22T01:03:32.333Z,3.00
2022-10-22T01:06:03.173Z,3.38
2022-10-22T01:08:43.057Z,3.50
2022-10-22T01:11:19.048Z,3.83
2022-10-22T01:14:04.449Z,3.28
2022-10-22T01:16:53.808Z,3.47
2022-10-22T01:19:41.153Z,3.50
2022-10-22T01:22:34.998Z,3.63
2022-10-22T01:25:29.854Z,3.33
2022-10-22T01:28:19.903Z,3.08
2022-10-22T01:30:49.252Z,3.30
2022-10-22T01:33:21.857Z,3.50
2022-10-22T01:35:49.140Z,3.17
2022-10-22T01:38:20.211Z,3.53
2022-10-22T01:40:47.997Z,3.42
2022-10-22T01:43:14.379Z,3.80
2022-10-22T01:45:48.419Z,3.30
2022-10-22T01:48:30.688Z,3.58
2022-10-22T01:51:12.302Z,3.03
2022-10-22T01:53:41.692Z,3.50
2022-10-22T01:56:26.268Z,3.63
2022-10-22T01:59:07.129Z,3.40
2022-10-22T02:01:52.321Z,3.20
2022-10-22T02:04:25.301Z,3.05
2022-10-22T02:06:54.768Z,3.40
2022-10-22T02:09:24.073Z,3.13
2022-10-22T02:11:51.698Z,3.40
2022-10-22T02:14:19.731Z,3.25
2022-10-22T02:16:49.388Z,3.35
2022-10-22T02:19:36.824Z,3.90
2022-10-22T02:22:03.966Z,3.27
2022-10-22T02:24:31.243Z,2.75
2022-10-22T02:27:16.585Z,3.78
2022-10-22T02:30:04.815Z,3.75
2022-10-22T02:32:38.620Z,3.22
2022-10-22T02:35:06.404Z,3.60
2022-10-22T02:37:32.794Z,3.47
2022-10-22T02:39:59.114Z,3.50
2022-10-22T02:42:26.448Z,3.30
2022-10-22T02:44:52.929Z,3.85
2022-10-22T02:47:19.328Z,3.43
2022-10-22T02:49:45.671Z,2.90
2022-10-22T02:52:11.986Z,3.67
2022-10-22T02:54:38.325Z,3.90
2022-10-22T02:57:04.759Z,3.03
2022-10-22T02:59:31.089Z,3.23
2022-10-22T03:01:57.415Z,3.55
2022-10-22T03:04:23.748Z,3.40
2022-10-22T03:06:50.208Z,3.35
2022-10-22T03:09:20.053Z,3.53
2022-10-22T03:11:48.989Z,3.43
2022-10-22T03:14:15.303Z,3.28
2022-10-22T03:16:41.607Z,3.30
2022-10-22T03:19:08.014Z,3.20
2022-10-22T03:22:00.829Z,2.95
2022-10-22T03:24:35.708Z,2.60
2022-10-22T03:27:02.421Z,3.10
2022-10-22T03:29:29.184Z,2.80
2022-10-22T03:31:55.539Z,2.88
2022-10-22T03:34:21.916Z,3.08
2022-10-22T03:36:49.174Z,3.13
2022-10-22T03:39:18.156Z,3.28
2022-10-22T03:41:45.535Z,3.40
2022-10-22T03:44:12.569Z,3.13
2022-10-22T03:46:38.898Z,3.08
2022-10-22T03:49:05.254Z,3.00
2022-10-22T03:51:31.745Z,2.83
2022-10-22T03:53:58.044Z,2.78
2022-10-22T03:56:24.493Z,2.72
2022-10-22T03:58:51.228Z,3.70
2022-10-22T04:01:17.662Z,3.10
2022-10-22T04:03:44.009Z,3.60
2022-10-22T04:06:12.613Z,3.42
2022-10-22T04:08:40.971Z,3.30
2022-10-22T04:11:07.961Z,3.00
2022-10-22T04:13:34.454Z,2.97
2022-10-22T04:16:14.369Z,3.10
2022-10-22T04:18:41.704Z,3.10
2022-10-22T04:21:09.855Z,3.75
2022-10-22T04:23:36.723Z,3.00
2022-10-22T04:26:05.781Z,3.00
2022-10-22T04:28:32.312Z,3.42
2022-10-22T04:30:58.707Z,3.65
2022-10-22T04:33:25.376Z,3.30
2022-10-22T04:35:51.701Z,3.55
2022-10-22T04:38:18.015Z,3.40
2022-10-22T04:40:44.367Z,3.72
2022-10-22T04:43:10.728Z,3.55
2022-10-22T04:45:37.121Z,3.78
2022-10-22T04:48:03.512Z,3.80
2022-10-22T04:50:30.858Z,3.27
2022-10-22T04:52:57.212Z,3.50
2022-10-22T04:55:23.564Z,3.88
2022-10-22T04:57:49.916Z,3.05
2022-10-22T05:00:16.632Z,3.92
2022-10-22T05:02:44.651Z,3.37
2022-10-22T05:05:11.894Z,3.67
2022-10-22T05:07:38.492Z,3.85
2022-10-22T05:10:05.276Z,3.28
2022-10-22T05:12:31.763Z,3.58
2022-10-22T05:14:58.107Z,3.60
2022-10-22T05:17:24.503Z,3.83
2022-10-22T05:19:50.832Z,3.83
2022-10-22T05:22:17.140Z,3.50
2022-10-22T05:24:43.774Z,3.55
2022-10-22T05:27:10.192Z,3.23
2022-10-22T05:29:36.678Z,4.28
2022-10-22T05:32:03.107Z,3.40
2022-10-22T05:34:29.419Z,4.45
2022-10-22T05:36:55.745Z,3.20
2022-10-22T05:39:22.064Z,3.10
2022-10-22T05:41:48.367Z,3.70
2022-10-22T05:44:14.996Z,3.05
2022-10-22T05:46:43.191Z,3.30
2022-10-22T05:49:15.171Z,3.03
2022-10-22T05:51:41.642Z,3.07
2022-10-22T05:54:08.848Z,3.63
2022-10-22T05:56:36.662Z,3.15
2022-10-22T06:01:35.572Z,3.20
2022-10-22T06:04:04.978Z,3.30
2022-10-22T06:06:40.835Z,3.20
2022-10-22T06:09:11.586Z,3.28
2022-10-22T06:11:37.932Z,3.25
2022-10-22T06:14:04.519Z,3.70
2022-10-22T06:16:31.937Z,3.50
2022-10-22T06:19:02.332Z,3.10
2022-10-22T06:21:30.085Z,2.85
2022-10-22T06:23:57.812Z,2.85
2022-10-22T06:26:24.448Z,3.00
2022-10-22T06:28:50.774Z,3.07
2022-10-22T06:31:17.188Z,3.05
2022-10-22T06:33:43.511Z,3.45
2022-10-22T06:36:12.833Z,3.30
2022-10-22T06:38:39.887Z,3.38
2022-10-22T06:41:12.060Z,2.67
2022-10-22T06:43:38.523Z,3.30
2022-10-22T06:46:09.584Z,3.40
2022-10-22T06:48:37.838Z,3.15
2022-10-22T06:51:06.316Z,3.08
2022-10-22T06:53:33.166Z,2.90
2022-10-22T06:55:59.523Z,2.70
2022-10-22T06:58:25.933Z,3.00
2022-10-22T07:01:01.896Z,3.10
2022-10-22T07:03:28.271Z,2.95
2022-10-22T07:05:54.617Z,3.80
2022-10-22T07:08:20.918Z,3.05
2022-10-22T07:10:47.233Z,2.92
2022-10-22T07:13:13.728Z,2.60
2022-10-22T07:15:40.048Z,3.03
2022-10-22T07:18:06.343Z,2.90
2022-10-22T07:20:32.733Z,2.53
2022-10-22T07:22:59.043Z,3.00
2022-10-22T07:25:25.432Z,2.47
2022-10-22T07:27:52.337Z,2.40
2022-10-22T07:30:18.742Z,2.60
2022-10-22T07:32:45.046Z,2.28
2022-10-22T07:35:11.392Z,2.58
2022-10-22T07:37:37.882Z,2.13
2022-10-22T07:40:04.912Z,2.80
2022-10-22T07:42:31.254Z,2.17
2022-10-22T07:44:57.628Z,2.08
2022-10-22T07:47:23.962Z,2.80
2022-10-22T07:49:50.315Z,2.00
2022-10-22T07:52:16.700Z,2.50
2022-10-22T07:54:42.996Z,1.70
2022-10-22T07:57:09.292Z,1.90
2022-10-22T07:59:35.599Z,2.10
2022-10-22T08:02:01.900Z,1.77
2022-10-22T08:04:28.272Z,1.92
2022-10-22T08:06:54.595Z,2.07
2022-10-22T08:09:20.977Z,1.52
2022-10-22T08:11:47.509Z,1.80
2022-10-22T08:14:13.948Z,2.05
2022-10-22T08:16:40.264Z,1.70
2022-10-22T08:19:06.731Z,1.80
2022-10-22T08:21:33.035Z,1.98
2022-10-22T08:23:59.386Z,2.10
2022-10-22T08:26:25.723Z,1.42
2022-10-22T08:28:52.066Z,1.42
2022-10-22T08:31:18.380Z,1.40
2022-10-22T08:33:44.696Z,1.77
2022-10-22T08:36:11.190Z,1.33
2022-10-22T08:38:37.611Z,1.35
2022-10-22T08:41:13.058Z,1.55
2022-10-22T08:44:06.763Z,1.33
2022-10-22T08:47:07.375Z,1.50
2022-10-22T08:49:39.789Z,1.65
2022-10-22T08:52:13.671Z,1.50
2022-10-22T08:54:59.575Z,1.17
2022-10-22T08:57:53.875Z,1.30
2022-10-22T09:00:47.700Z,1.13
2022-10-22T09:03:27.044Z,1.38
2022-10-22T09:05:56.516Z,1.35
2022-10-22T09:08:23.285Z,1.38
2022-10-22T09:10:55.732Z,1.50
2022-10-22T09:13:23.300Z,1.30
2022-10-22T09:15:55.766Z,1.27
2022-10-22T09:18:32.481Z,1.20
2022-10-22T09:21:09.889Z,1.30
2022-10-22T09:24:06.639Z,1.10
2022-10-22T09:26:37.757Z,1.73
2022-10-22T09:29:05.229Z,1.65
2022-10-22T09:31:33.192Z,1.10
2022-10-22T09:34:05.708Z,1.40
2022-10-22T09:36:32.405Z,1.37
2022-10-22T09:38:59.827Z,1.48
2022-10-22T09:41:32.128Z,1.30
2022-10-22T09:43:59.452Z,1.25
2022-10-22T09:46:29.752Z,1.02
2022-10-22T09:49:04.410Z,0.80
2022-10-22T09:51:51.835Z,1.23
2022-10-22T09:54:23.370Z,1.30
2022-10-22T09:56:58.483Z,1.50
2022-10-22T09:59:32.059Z,1.38
2022-10-22T10:02:19.627Z,1.30
2022-10-22T10:04:56.350Z,1.27
2022-10-22T10:07:26.039Z,1.35
2022-10-22T10:09:54.131Z,0.90
2022-10-22T10:15:36.451Z,1.00
2022-10-22T10:18:37.861Z,1.02
2022-10-22T10:21:16.739Z,0.88
2022-10-22T10:24:03.086Z,1.05
2022-10-22T10:26:58.467Z,1.00
2022-10-22T10:29:44.261Z,1.00
2022-10-22T10:32:46.324Z,0.80
2022-10-22T10:35:30.774Z,1.30
2022-10-22T10:38:18.575Z,1.20
2022-10-22T10:40:56.629Z,1.13
2022-10-22T10:43:50.476Z,1.07
2022-10-22T10:46:33.447Z,1.00
2022-10-22T10:49:24.152Z,1.30
2022-10-22T10:52:35.890Z,0.93
2022-10-22T10:55:14.643Z,0.70
2022-10-22T10:58:31.472Z,2.03
2022-10-22T11:01:03.660Z,0.90
2022-10-22T11:03:57.679Z,1.10
2022-10-22T11:06:26.313Z,1.95
2022-10-22T11:08:55.353Z,0.90
2022-10-22T11:11:29.970Z,1.10
2022-10-22T11:14:29.307Z,1.00
2022-10-22T11:17:06.442Z,0.82
2022-10-22T11:19:53.120Z,1.70
2022-10-22T11:22:37.888Z,1.00
2022-10-22T11:25:13.435Z,1.17
2022-10-22T11:27:45.464Z,0.75
2022-10-22T11:30:13.280Z,0.82
2022-10-22T11:32:42.798Z,0.82
2022-10-22T11:35:16.052Z,0.73
2022-10-22T11:37:45.496Z,2.10
2022-10-22T11:40:19.978Z,1.15
2022-10-22T11:42:52.262Z,1.33
2022-10-22T11:45:18.521Z,1.10
2022-10-22T11:48:10.575Z,1.13
2022-10-22T11:51:11.016Z,0.97
2022-10-22T11:53:39.223Z,1.33
2022-10-22T11:56:10.157Z,1.17
2022-10-22T11:58:42.189Z,1.10
2022-10-22T12:01:08.519Z,1.63
2022-10-22T12:03:34.799Z,1.57
2022-10-22T12:06:13.230Z,1.27
2022-10-22T12:09:07.162Z,0.98
2022-10-22T12:11:45.542Z,1.17
2022-10-22T12:14:29.744Z,0.93
2022-10-22T12:16:58.902Z,0.90
2022-10-22T12:19:31.875Z,0.77
2022-10-22T12:22:21.404Z,1.75
2022-10-22T12:24:50.027Z,1.10
2022-10-22T12:27:22.670Z,1.58
2022-10-22T12:29:54.089Z,1.40
2022-10-22T12:32:20.659Z,1.20
2022-10-22T12:37:18.039Z,1.42
2022-10-22T12:39:45.747Z,1.30
2022-10-22T12:42:17.725Z,0.80
2022-10-22T12:44:45.069Z,2.15
2022-10-22T12:47:16.997Z,1.45
2022-10-22T12:49:47.870Z,1.10
2022-10-22T12:52:18.434Z,1.02
2022-10-22T12:54:47.871Z,1.50
2022-10-22T12:57:17.196Z,1.10
2022-10-22T12:59:48.895Z,1.42
2022-10-22T13:02:21.401Z,1.05
2022-10-22T13:05:39.168Z,1.10
2022-10-22T13:08:10.452Z,1.13
2022-10-22T13:10:40.506Z,1.10
2022-10-22T13:13:07.263Z,1.23
2022-10-22T13:15:37.455Z,1.20
2022-10-22T13:18:17.375Z,1.35
2022-10-22T13:21:21.823Z,1.40
2022-10-22T13:23:54.437Z,1.58
2022-10-22T13:26:21.044Z,1.60
2022-10-22T13:28:56.362Z,1.90
2022-10-22T13:31:29.489Z,1.40
2022-10-22T13:33:58.786Z,1.30
2022-10-22T13:36:25.319Z,1.65
2022-10-22T13:38:51.901Z,1.83
2022-10-22T13:41:27.077Z,1.83
2022-10-22T13:43:54.487Z,1.80
2022-10-22T13:46:22.668Z,1.30
2022-10-22T13:48:52.448Z,1.70
2022-10-22T13:51:21.803Z,1.50
2022-10-22T13:53:49.920Z,1.70
2022-10-22T13:56:18.579Z,1.20
2022-10-22T13:58:46.428Z,1.90
2022-10-22T14:01:19.132Z,1.50
2022-10-22T14:03:47.041Z,2.20
2022-10-22T14:06:15.407Z,1.27
2022-10-22T14:08:43.261Z,1.85
2022-10-22T14:11:11.890Z,1.87
2022-10-22T14:13:38.866Z,1.65
2022-10-22T14:16:08.000Z,1.80
2022-10-22T14:18:35.512Z,1.85
2022-10-22T14:21:07.518Z,1.45
2022-10-22T14:23:35.938Z,1.80
2022-10-22T14:26:04.045Z,1.67
2022-10-22T14:28:34.143Z,1.75
2022-10-22T14:31:03.655Z,1.48
2022-10-22T14:33:33.551Z,1.70
2022-10-22T14:36:00.859Z,1.90
2022-10-22T14:38:27.248Z,1.48
2022-10-22T14:40:53.957Z,1.35
2022-10-22T14:43:29.734Z,1.65
2022-10-22T14:45:57.210Z,1.58
2022-10-22T14:48:24.210Z,2.27
2022-10-22T14:50:50.691Z,1.60
2022-10-22T14:53:17.329Z,1.35
2022-10-22T14:55:44.879Z,1.60
2022-10-22T14:58:12.235Z,2.08
2022-10-22T15:00:41.842Z,1.73
2022-10-22T15:03:08.386Z,1.30
2022-10-22T15:05:36.163Z,1.35
2022-10-22T15:08:02.497Z,1.80
2022-10-22T15:10:29.177Z,1.50
2022-10-22T15:12:55.541Z,1.60
2022-10-22T15:15:22.869Z,1.70
2022-10-22T15:17:50.144Z,1.55
2022-10-22T15:20:16.557Z,1.80
2022-10-22T15:22:43.204Z,1.65
2022-10-22T15:25:10.903Z,1.40
2022-10-22T15:27:37.256Z,1.15
2022-10-22T15:30:05.328Z,1.40
2022-10-22T15:32:33.489Z,1.10
2022-10-22T15:35:01.349Z,1.27
2022-10-22T15:37:27.716Z,1.27
2022-10-22T15:39:54.147Z,1.95
2022-10-22T15:42:20.539Z,1.27
2022-10-22T15:44:46.856Z,1.00
2022-10-22T15:47:13.268Z,1.70
2022-10-22T15:49:41.608Z,2.03
2022-10-22T15:52:08.924Z,2.75
2022-10-22T15:54:35.783Z,1.83
2022-10-22T15:57:03.870Z,1.77
2022-10-22T15:59:30.504Z,1.40
2022-10-22T16:01:56.866Z,1.10
2022-10-22T16:04:23.304Z,1.52
2022-10-22T16:06:54.917Z,1.73
2022-10-22T16:09:23.876Z,1.45
2022-10-22T16:14:23.985Z,1.30
2022-10-22T16:16:53.606Z,1.45
2022-10-22T16:19:22.095Z,1.38
2022-10-22T16:21:53.772Z,1.20
2022-10-22T16:24:21.004Z,1.48
2022-10-22T16:26:47.843Z,1.57
2022-10-22T16:29:14.530Z,1.42
2022-10-22T16:31:43.428Z,1.52
2022-10-22T16:34:09.784Z,2.10
2022-10-22T16:36:37.002Z,1.45
2022-10-22T16:39:04.288Z,3.70
2022-10-22T16:41:35.148Z,1.92
2022-10-22T16:44:04.420Z,1.60
2022-10-22T16:46:31.277Z,1.73
2022-10-22T16:48:57.780Z,1.88
2022-10-22T16:51:26.304Z,1.90
2022-10-22T16:53:53.312Z,1.88
2022-10-22T16:56:20.355Z,2.10
2022-10-22T16:58:49.637Z,2.58
2022-10-22T17:01:18.288Z,1.60
2022-10-22T17:03:45.114Z,1.90
2022-10-22T17:06:11.897Z,2.40
2022-10-22T17:08:39.774Z,2.42
2022-10-22T17:11:11.066Z,1.85
2022-10-22T17:13:39.611Z,2.58
2022-10-22T17:16:08.684Z,2.30
2022-10-22T17:18:37.244Z,2.22
2022-10-22T17:21:04.813Z,1.85
2022-10-22T17:23:31.282Z,2.08
2022-10-22T17:26:08.878Z,1.98
2022-10-22T17:28:36.412Z,2.80
2022-10-22T17:31:20.797Z,3.17
2022-10-22T17:33:48.790Z,2.63
2022-10-22T17:36:16.757Z,2.80
2022-10-22T17:38:43.457Z,2.90
2022-10-22T17:41:14.924Z,2.93
2022-10-22T17:43:41.371Z,3.17
2022-10-22T17:46:15.656Z,2.92
2022-10-22T17:48:41.973Z,3.58
2022-10-22T17:51:10.338Z,4.40
2022-10-22T17:53:40.339Z,4.00
2022-10-22T17:56:10.012Z,3.78
2022-10-22T17:58:37.249Z,4.63
2022-10-22T18:01:04.287Z,4.38
2022-10-22T18:03:30.712Z,5.05
2022-10-22T18:06:05.324Z,4.33
2022-10-22T18:08:31.676Z,5.40
2022-10-22T18:10:58.070Z,4.57
2022-10-22T18:13:24.419Z,4.35
2022-10-22T18:15:55.815Z,4.15
2022-10-22T18:18:23.171Z,4.13
2022-10-22T18:20:52.891Z,4.43
2022-10-22T18:23:19.324Z,4.10
2022-10-22T18:25:48.015Z,4.22
2022-10-22T18:28:19.103Z,4.30
2022-10-22T18:30:47.191Z,4.00
2022-10-22T18:33:15.012Z,3.80
2022-10-22T18:35:41.353Z,3.90
2022-10-22T18:38:08.512Z,4.50
2022-10-22T18:40:35.978Z,3.67
2022-10-22T18:43:03.427Z,3.60
2022-10-22T18:45:29.873Z,3.88
2022-10-22T18:47:56.217Z,4.57
2022-10-22T18:50:22.595Z,4.43
2022-10-22T18:52:49.001Z,4.93
2022-10-22T18:55:15.406Z,4.60
2022-10-22T18:57:41.736Z,3.83
2022-10-22T19:00:08.657Z,4.10
2022-10-22T19:02:34.973Z,3.78
2022-10-22T19:05:01.319Z,4.47
2022-10-22T19:07:27.628Z,4.23
2022-10-22T19:09:53.953Z,4.70
2022-10-22T19:12:21.523Z,4.55
2022-10-22T19:14:48.801Z,5.95
2022-10-22T19:17:15.149Z,4.80
2022-10-22T19:19:41.481Z,5.60
2022-10-22T19:22:07.827Z,5.53
2022-10-22T19:24:34.508Z,5.22
2022-10-22T19:27:00.956Z,4.68
2022-10-22T19:29:27.335Z,4.75
2022-10-22T19:31:53.828Z,5.67
2022-10-22T19:34:20.660Z,4.88
2022-10-22T19:36:47.172Z,5.57
2022-10-22T19:39:17.115Z,6.40
2022-10-22T19:41:43.726Z,6.50
2022-10-22T19:44:10.428Z,6.27
2022-10-22T19:46:37.236Z,6.10
2022-10-22T19:49:04.475Z,6.53
2022-10-22T19:51:33.253Z,6.43
2022-10-22T19:54:07.760Z,6.72
2022-10-22T19:56:35.744Z,6.37
2022-10-22T19:59:03.597Z,6.25
2022-10-22T20:01:33.920Z,6.22
2022-10-22T20:04:01.331Z,7.00
2022-10-22T20:06:27.696Z,6.50
2022-10-22T20:08:56.213Z,5.50
2022-10-22T20:11:25.659Z,5.40
2022-10-22T20:13:52.777Z,5.72
2022-10-22T20:16:22.999Z,6.22
2022-10-22T20:18:49.634Z,6.43
2022-10-22T20:21:19.128Z,5.17
2022-10-22T20:23:46.392Z,5.40
2022-10-22T20:26:13.355Z,5.32
2022-10-22T20:28:40.072Z,5.68
2022-10-22T20:31:14.629Z,6.18
2022-10-22T20:33:41.018Z,6.00
2022-10-22T20:36:12.696Z,5.93
2022-10-22T20:38:39.188Z,5.82
2022-10-22T20:41:10.009Z,5.85
2022-10-22T20:43:36.392Z,5.57
2022-10-22T20:46:03.471Z,6.00
2022-10-22T20:48:31.245Z,5.38
2022-10-22T20:50:59.203Z,5.10
2022-10-22T20:53:26.305Z,6.10
2022-10-22T20:55:56.915Z,5.65
2022-10-22T20:58:25.952Z,6.10
2022-10-22T21:00:55.007Z,5.45
2022-10-22T21:03:21.882Z,5.15
2022-10-22T21:05:48.527Z,5.75
2022-10-22T21:08:17.371Z,5.63
2022-10-22T21:10:46.259Z,6.50
2022-10-22T21:13:13.815Z,6.13
2022-10-22T21:15:40.316Z,6.05
2022-10-22T21:18:07.435Z,6.70
2022-10-22T21:20:33.829Z,6.40
2022-10-22T21:23:00.240Z,7.07
2022-10-22T21:25:26.548Z,7.20
2022-10-22T21:27:52.894Z,7.35
2022-10-22T21:30:19.213Z,6.93
2022-10-22T21:32:45.533Z,6.82
2022-10-22T21:35:12.213Z,6.43
2022-10-22T21:37:38.696Z,6.43
2022-10-22T21:40:05.815Z,6.00
2022-10-22T21:42:32.144Z,6.65
2022-10-22T21:44:58.471Z,6.30
2022-10-22T21:47:24.930Z,6.40
2022-10-22T21:49:51.308Z,6.78
2022-10-22T21:52:17.708Z,7.32
2022-10-22T21:54:44.043Z,6.63
2022-10-22T21:57:10.417Z,6.40
2022-10-22T21:59:36.809Z,6.20
2022-10-22T22:02:05.664Z,5.72
2022-10-22T22:04:33.021Z,6.30
2022-10-22T22:06:59.338Z,6.10
2022-10-22T22:09:25.699Z,5.47
2022-10-22T22:11:52.038Z,7.23
2022-10-22T22:14:18.363Z,8.15
2022-10-22T22:16:44.707Z,7.78
2022-10-22T22:19:12.176Z,7.28
2022-10-22T22:21:40.180Z,7.60
2022-10-22T22:24:07.619Z,6.80
2022-10-22T22:26:34.120Z,7.18
2022-10-22T22:29:00.590Z,7.72
2022-10-22T22:31:32.616Z,6.70
2022-10-22T22:34:13.264Z,6.90
2022-10-22T22:36:49.288Z,6.77
2022-10-22T22:39:18.984Z,6.03
2022-10-22T22:41:45.722Z,6.15
2022-10-22T22:44:12.757Z,6.10
2022-10-22T22:46:39.235Z,5.57
2022-10-22T22:49:06.170Z,6.20
2022-10-22T22:51:32.945Z,6.20
2022-10-22T22:54:00.315Z,6.05
2022-10-22T22:56:29.336Z,5.55
2022-10-22T22:58:56.659Z,6.32
2022-10-22T23:01:26.298Z,6.03
2022-10-22T23:03:58.856Z,6.03
2022-10-22T23:06:27.707Z,6.43
2022-10-22T23:08:55.687Z,6.78
2022-10-22T23:11:23.780Z,6.55
2022-10-22T23:13:58.770Z,6.43
2022-10-22T23:16:28.398Z,6.68
2022-10-22T23:18:55.541Z,7.00
2022-10-22T23:21:25.217Z,6.78
2022-10-22T23:23:54.564Z,6.88
2022-10-22T23:26:30.051Z,7.10
2022-10-22T23:29:00.994Z,6.07
2022-10-22T23:31:27.313Z,6.78
2022-10-22T23:33:53.675Z,5.95
2022-10-22T23:36:20.023Z,6.70
2022-10-22T23:38:46.673Z,6.40
2022-10-22T23:41:13.001Z,6.50
2022-10-22T23:43:39.367Z,6.45
2022-10-22T23:46:09.073Z,6.13
2022-10-22T23:48:36.205Z,6.05
2022-10-22T23:51:11.851Z,5.30
2022-10-22T23:53:39.052Z,5.90
2022-10-22T23:56:07.608Z,6.13
2022-10-22T23:58:35.067Z,5.72
